sensor_id;sensor_type;location;lat;lon;timestamp;P1;durP1;ratioP1;P2;durP2;ratioP2
55021;SDS011;68328;35.990;-86.756;2023-11-21T00:01:26;11;;;10;;
55021;SDS011;68328;35.990;-86.756;2023-11-21T00:03:52;8;;;8;;
55021;SDS011;68328;35.990;-86.756;2023-11-21T00:06:16;9;;;9;;
55021;SDS011;68328;35.990;-86.756;2023-11-21T00:08:42;9;;;8;;
55021;SDS011;68328;35.990;-86.756;2023-11-21T00:11:07;10;;;9;;
55021;SDS011;68328;35.990;-86.756;2023-11-21T00:13:32;8;;;8;;
55021;SDS011;68328;35.990;-86.756;2023-11-21T00:15:59;17;;;15;;
55021;SDS011;68328;35.990;-86.756;2023-11-21T00:18:23;9;;;9;;
55021;SDS011;68328;35.990;-86.756;2023-11-21T00:20:49;9;;;9;;
55021;SDS011;68328;35.990;-86.756;2023-11-21T00:23:14;7;;;7;;
55021;SDS011;68328;35.990;-86.756;2023-11-21T00:25:39;10;;;8;;
55021;SDS011;68328;35.990;-86.756;2023-11-21T00:28:05;11;;;9;;
55021;SDS011;68328;35.990;-86.756;2023-11-21T00:30:30;10;;;10;;
55021;SDS011;68328;35.990;-86.756;2023-11-21T00:32:55;11;;;9;;
55021;SDS011;68328;35.990;-86.756;2023-11-21T00:35:20;13;;;13;;
55021;SDS011;68328;35.990;-86.756;2023-11-21T00:37:46;10;;;10;;
55021;SDS011;68328;35.990;-86.756;2023-11-21T00:40:13;16;;;14;;
55021;SDS011;68328;35.990;-86.756;2023-11-21T00:42:37;12;;;12;;
55021;SDS011;68328;35.990;-86.756;2023-11-21T00:45:03;12;;;12;;
55021;SDS011;68328;35.990;-86.756;2023-11-21T00:47:27;11;;;10;;
55021;SDS011;68328;35.990;-86.756;2023-11-21T00:49:53;10;;;10;;
55021;SDS011;68328;35.990;-86.756;2023-11-21T00:52:19;10;;;10;;
55021;SDS011;68328;35.990;-86.756;2023-11-21T00:54:43;10;;;10;;
55021;SDS011;68328;35.990;-86.756;2023-11-21T00:57:09;11;;;10;;
55021;SDS011;68328;35.990;-86.756;2023-11-21T00:59:34;9;;;9;;
55021;SDS011;68328;35.990;-86.756;2023-11-21T01:02:01;11;;;10;;
55021;SDS011;68328;35.990;-86.756;2023-11-21T01:04:25;11;;;11;;
55021;SDS011;68328;35.990;-86.756;2023-11-21T01:06:50;12;;;11;;
55021;SDS011;68328;35.990;-86.756;2023-11-21T01:09:16;8;;;8;;
55021;SDS011;68328;35.990;-86.756;2023-11-21T01:11:41;10;;;10;;
55021;SDS011;68328;35.990;-86.756;2023-11-21T01:14:08;14;;;12;;
55021;SDS011;68328;35.990;-86.756;2023-11-21T01:16:32;12;;;11;;
55021;SDS011;68328;35.990;-86.756;2023-11-21T01:18:57;9;;;9;;
55021;SDS011;68328;35.990;-86.756;2023-11-21T01:21:23;10;;;9;;
55021;SDS011;68328;35.990;-86.756;2023-11-21T01:23:50;12;;;10;;
55021;SDS011;68328;35.990;-86.756;2023-11-21T01:26:14;7;;;7;;
55021;SDS011;68328;35.990;-86.756;2023-11-21T01:28:41;9;;;9;;
55021;SDS011;68328;35.990;-86.756;2023-11-21T01:31:05;9;;;8;;
55021;SDS011;68328;35.990;-86.756;2023-11-21T01:33:34;8;;;8;;
55021;SDS011;68328;35.990;-86.756;2023-11-21T01:35:57;9;;;9;;
55021;SDS011;68328;35.990;-86.756;2023-11-21T01:38:22;11;;;11;;
55021;SDS011;68328;35.990;-86.756;2023-11-21T01:40:49;13;;;10;;
55021;SDS011;68328;35.990;-86.756;2023-11-21T01:43:13;10;;;10;;
55021;SDS011;68328;35.990;-86.756;2023-11-21T01:45:38;12;;;11;;
55021;SDS011;68328;35.990;-86.756;2023-11-21T01:48:04;12;;;11;;
55021;SDS011;68328;35.990;-86.756;2023-11-21T01:50:32;10;;;10;;
55021;SDS011;68328;35.990;-86.756;2023-11-21T01:52:56;8;;;8;;
55021;SDS011;68328;35.990;-86.756;2023-11-21T01:55:21;11;;;11;;
55021;SDS011;68328;35.990;-86.756;2023-11-21T01:57:46;12;;;12;;
55021;SDS011;68328;35.990;-86.756;2023-11-21T02:00:13;11;;;11;;
55021;SDS011;68328;35.990;-86.756;2023-11-21T02:02:38;10;;;10;;
55021;SDS011;68328;35.990;-86.756;2023-11-21T02:05:02;14;;;12;;
55021;SDS011;68328;35.990;-86.756;2023-11-21T02:07:29;12;;;11;;
55021;SDS011;68328;35.990;-86.756;2023-11-21T02:09:53;10;;;10;;
55021;SDS011;68328;35.990;-86.756;2023-11-21T02:12:20;10;;;9;;
55021;SDS011;68328;35.990;-86.756;2023-11-21T02:14:45;16;;;16;;
55021;SDS011;68328;35.990;-86.756;2023-11-21T02:17:09;11;;;11;;
55021;SDS011;68328;35.990;-86.756;2023-11-21T02:19:35;11;;;10;;
55021;SDS011;68328;35.990;-86.756;2023-11-21T02:22:00;15;;;13;;
55021;SDS011;68328;35.990;-86.756;2023-11-21T02:24:25;11;;;11;;
55021;SDS011;68328;35.990;-86.756;2023-11-21T02:26:52;10;;;10;;
55021;SDS011;68328;35.990;-86.756;2023-11-21T02:29:17;14;;;14;;
55021;SDS011;68328;35.990;-86.756;2023-11-21T02:31:43;9;;;9;;
55021;SDS011;68328;35.990;-86.756;2023-11-21T02:34:07;10;;;10;;
55021;SDS011;68328;35.990;-86.756;2023-11-21T02:36:34;16;;;14;;
55021;SDS011;68328;35.990;-86.756;2023-11-21T02:38:58;10;;;10;;
55021;SDS011;68328;35.990;-86.756;2023-11-21T02:41:24;11;;;11;;
55021;SDS011;68328;35.990;-86.756;2023-11-21T02:43:49;12;;;11;;
55021;SDS011;68328;35.990;-86.756;2023-11-21T02:46:16;11;;;11;;
55021;SDS011;68328;35.990;-86.756;2023-11-21T02:48:40;10;;;10;;
55021;SDS011;68328;35.990;-86.756;2023-11-21T02:51:06;11;;;10;;
55021;SDS011;68328;35.990;-86.756;2023-11-21T02:53:31;15;;;12;;
55021;SDS011;68328;35.990;-86.756;2023-11-21T02:55:56;21;;;19;;
55021;SDS011;68328;35.990;-86.756;2023-11-21T02:58:22;11;;;11;;
55021;SDS011;68328;35.990;-86.756;2023-11-21T03:00:47;12;;;12;;
55021;SDS011;68328;35.990;-86.756;2023-11-21T03:03:12;14;;;14;;
55021;SDS011;68328;35.990;-86.756;2023-11-21T03:05:38;13;;;10;;
55021;SDS011;68328;35.990;-86.756;2023-11-21T03:08:04;11;;;11;;
55021;SDS011;68328;35.990;-86.756;2023-11-21T03:10:29;12;;;11;;
55021;SDS011;68328;35.990;-86.756;2023-11-21T03:12:54;14;;;12;;
55021;SDS011;68328;35.990;-86.756;2023-11-21T03:15:23;11;;;11;;
55021;SDS011;68328;35.990;-86.756;2023-11-21T03:17:47;12;;;12;;
55021;SDS011;68328;35.990;-86.756;2023-11-21T03:20:13;10;;;10;;
55021;SDS011;68328;35.990;-86.756;2023-11-21T03:22:37;13;;;12;;
55021;SDS011;68328;35.990;-86.756;2023-11-21T03:25:04;14;;;13;;
55021;SDS011;68328;35.990;-86.756;2023-11-21T03:27:30;14;;;12;;
55021;SDS011;68328;35.990;-86.756;2023-11-21T03:29:55;15;;;15;;
55021;SDS011;68328;35.990;-86.756;2023-11-21T03:32:21;14;;;13;;
55021;SDS011;68328;35.990;-86.756;2023-11-21T03:34:54;19;;;19;;
55021;SDS011;68328;35.990;-86.756;2023-11-21T03:37:12;11;;;10;;
55021;SDS011;68328;35.990;-86.756;2023-11-21T03:39:36;11;;;10;;
55021;SDS011;68328;35.990;-86.756;2023-11-21T03:42:01;11;;;11;;
55021;SDS011;68328;35.990;-86.756;2023-11-21T03:44:27;15;;;13;;
55021;SDS011;68328;35.990;-86.756;2023-11-21T03:46:53;14;;;14;;
55021;SDS011;68328;35.990;-86.756;2023-11-21T03:49:19;13;;;13;;
55021;SDS011;68328;35.990;-86.756;2023-11-21T03:51:44;12;;;12;;
55021;SDS011;68328;35.990;-86.756;2023-11-21T03:54:09;11;;;11;;
55021;SDS011;68328;35.990;-86.756;2023-11-21T03:56:35;12;;;11;;
55021;SDS011;68328;35.990;-86.756;2023-11-21T03:59:00;13;;;10;;
55021;SDS011;68328;35.990;-86.756;2023-11-21T04:01:26;12;;;11;;
55021;SDS011;68328;35.990;-86.756;2023-11-21T04:03:51;14;;;11;;
55021;SDS011;68328;35.990;-86.756;2023-11-21T04:06:17;10;;;10;;
55021;SDS011;68328;35.990;-86.756;2023-11-21T04:08:43;12;;;11;;
55021;SDS011;68328;35.990;-86.756;2023-11-21T04:11:08;12;;;11;;
55021;SDS011;68328;35.990;-86.756;2023-11-21T04:13:33;13;;;10;;
55021;SDS011;68328;35.990;-86.756;2023-11-21T04:16:01;15;;;14;;
55021;SDS011;68328;35.990;-86.756;2023-11-21T04:18:25;12;;;12;;
55021;SDS011;68328;35.990;-86.756;2023-11-21T04:20:49;11;;;11;;
55021;SDS011;68328;35.990;-86.756;2023-11-21T04:23:15;13;;;12;;
55021;SDS011;68328;35.990;-86.756;2023-11-21T04:25:40;9;;;9;;
55021;SDS011;68328;35.990;-86.756;2023-11-21T04:28:05;13;;;12;;
55021;SDS011;68328;35.990;-86.756;2023-11-21T04:30:31;13;;;13;;
55021;SDS011;68328;35.990;-86.756;2023-11-21T04:32:57;20;;;19;;
55021;SDS011;68328;35.990;-86.756;2023-11-21T04:35:21;12;;;12;;
55021;SDS011;68328;35.990;-86.756;2023-11-21T04:37:47;15;;;14;;
55021;SDS011;68328;35.990;-86.756;2023-11-21T04:40:13;18;;;17;;
55021;SDS011;68328;35.990;-86.756;2023-11-21T04:42:39;13;;;13;;
55021;SDS011;68328;35.990;-86.756;2023-11-21T04:45:06;12;;;12;;
55021;SDS011;68328;35.990;-86.756;2023-11-21T04:47:30;18;;;18;;
55021;SDS011;68328;35.990;-86.756;2023-11-21T04:49:55;19;;;16;;
55021;SDS011;68328;35.990;-86.756;2023-11-21T04:52:21;15;;;12;;
55021;SDS011;68328;35.990;-86.756;2023-11-21T04:54:48;10;;;10;;
55021;SDS011;68328;35.990;-86.756;2023-11-21T04:57:13;11;;;11;;
55021;SDS011;68328;35.990;-86.756;2023-11-21T04:59:40;13;;;13;;
55021;SDS011;68328;35.990;-86.756;2023-11-21T05:02:04;15;;;14;;
55021;SDS011;68328;35.990;-86.756;2023-11-21T05:04:29;12;;;11;;
55021;SDS011;68328;35.990;-86.756;2023-11-21T05:06:55;13;;;12;;
55021;SDS011;68328;35.990;-86.756;2023-11-21T05:09:20;13;;;12;;
55021;SDS011;68328;35.990;-86.756;2023-11-21T05:11:45;7;;;7;;
55021;SDS011;68328;35.990;-86.756;2023-11-21T05:14:10;11;;;11;;
55021;SDS011;68328;35.990;-86.756;2023-11-21T05:16:36;13;;;13;;
55021;SDS011;68328;35.990;-86.756;2023-11-21T05:19:03;11;;;11;;
55021;SDS011;68328;35.990;-86.756;2023-11-21T05:21:26;12;;;12;;
55021;SDS011;68328;35.990;-86.756;2023-11-21T05:23:52;18;;;16;;
55021;SDS011;68328;35.990;-86.756;2023-11-21T05:26:17;12;;;12;;
55021;SDS011;68328;35.990;-86.756;2023-11-21T05:28:43;12;;;12;;
55021;SDS011;68328;35.990;-86.756;2023-11-21T05:31:09;13;;;13;;
55021;SDS011;68328;35.990;-86.756;2023-11-21T05:33:34;9;;;9;;
55021;SDS011;68328;35.990;-86.756;2023-11-21T05:35:59;13;;;12;;
55021;SDS011;68328;35.990;-86.756;2023-11-21T05:38:24;12;;;10;;
55021;SDS011;68328;35.990;-86.756;2023-11-21T05:40:50;11;;;11;;
55021;SDS011;68328;35.990;-86.756;2023-11-21T05:43:16;19;;;16;;
55021;SDS011;68328;35.990;-86.756;2023-11-21T05:45:41;10;;;10;;
55021;SDS011;68328;35.990;-86.756;2023-11-21T05:48:07;14;;;13;;
55021;SDS011;68328;35.990;-86.756;2023-11-21T05:50:33;10;;;10;;
55021;SDS011;68328;35.990;-86.756;2023-11-21T05:52:58;19;;;17;;
55021;SDS011;68328;35.990;-86.756;2023-11-21T05:55:24;11;;;11;;
55021;SDS011;68328;35.990;-86.756;2023-11-21T05:57:49;11;;;11;;
55021;SDS011;68328;35.990;-86.756;2023-11-21T06:00:14;11;;;11;;
55021;SDS011;68328;35.990;-86.756;2023-11-21T06:02:40;12;;;12;;
55021;SDS011;68328;35.990;-86.756;2023-11-21T06:05:06;9;;;9;;
55021;SDS011;68328;35.990;-86.756;2023-11-21T06:07:31;14;;;10;;
55021;SDS011;68328;35.990;-86.756;2023-11-21T06:09:56;12;;;11;;
55021;SDS011;68328;35.990;-86.756;2023-11-21T06:12:21;13;;;12;;
55021;SDS011;68328;35.990;-86.756;2023-11-21T06:14:46;13;;;10;;
55021;SDS011;68328;35.990;-86.756;2023-11-21T06:17:12;12;;;12;;
55021;SDS011;68328;35.990;-86.756;2023-11-21T06:19:38;11;;;11;;
55021;SDS011;68328;35.990;-86.756;2023-11-21T06:22:04;10;;;10;;
55021;SDS011;68328;35.990;-86.756;2023-11-21T06:24:27;10;;;10;;
55021;SDS011;68328;35.990;-86.756;2023-11-21T06:26:53;11;;;11;;
55021;SDS011;68328;35.990;-86.756;2023-11-21T06:29:18;9;;;9;;
55021;SDS011;68328;35.990;-86.756;2023-11-21T06:31:43;11;;;11;;
55021;SDS011;68328;35.990;-86.756;2023-11-21T06:34:10;11;;;11;;
55021;SDS011;68328;35.990;-86.756;2023-11-21T06:36:35;11;;;10;;
55021;SDS011;68328;35.990;-86.756;2023-11-21T06:39:01;15;;;10;;
55021;SDS011;68328;35.990;-86.756;2023-11-21T06:41:26;10;;;10;;
55021;SDS011;68328;35.990;-86.756;2023-11-21T06:43:52;11;;;11;;
55021;SDS011;68328;35.990;-86.756;2023-11-21T06:46:19;10;;;10;;
55021;SDS011;68328;35.990;-86.756;2023-11-21T06:48:43;10;;;10;;
55021;SDS011;68328;35.990;-86.756;2023-11-21T06:51:08;11;;;10;;
55021;SDS011;68328;35.990;-86.756;2023-11-21T06:53:34;11;;;11;;
55021;SDS011;68328;35.990;-86.756;2023-11-21T06:56:00;14;;;14;;
55021;SDS011;68328;35.990;-86.756;2023-11-21T06:58:26;12;;;11;;
55021;SDS011;68328;35.990;-86.756;2023-11-21T07:00:50;14;;;13;;
55021;SDS011;68328;35.990;-86.756;2023-11-21T07:03:15;10;;;10;;
55021;SDS011;68328;35.990;-86.756;2023-11-21T07:05:41;18;;;18;;
55021;SDS011;68328;35.990;-86.756;2023-11-21T07:08:06;14;;;14;;
55021;SDS011;68328;35.990;-86.756;2023-11-21T07:10:32;13;;;13;;
55021;SDS011;68328;35.990;-86.756;2023-11-21T07:12:58;11;;;11;;
55021;SDS011;68328;35.990;-86.756;2023-11-21T07:15:23;13;;;11;;
55021;SDS011;68328;35.990;-86.756;2023-11-21T07:17:49;14;;;12;;
55021;SDS011;68328;35.990;-86.756;2023-11-21T07:20:14;11;;;9;;
55021;SDS011;68328;35.990;-86.756;2023-11-21T07:22:40;14;;;13;;
55021;SDS011;68328;35.990;-86.756;2023-11-21T07:25:06;10;;;10;;
55021;SDS011;68328;35.990;-86.756;2023-11-21T07:27:31;10;;;10;;
55021;SDS011;68328;35.990;-86.756;2023-11-21T07:29:57;13;;;13;;
55021;SDS011;68328;35.990;-86.756;2023-11-21T07:32:23;10;;;9;;
55021;SDS011;68328;35.990;-86.756;2023-11-21T07:34:48;12;;;12;;
55021;SDS011;68328;35.990;-86.756;2023-11-21T07:37:14;14;;;11;;
55021;SDS011;68328;35.990;-86.756;2023-11-21T07:39:38;14;;;12;;
55021;SDS011;68328;35.990;-86.756;2023-11-21T07:42:04;12;;;10;;
55021;SDS011;68328;35.990;-86.756;2023-11-21T07:44:29;13;;;9;;
55021;SDS011;68328;35.990;-86.756;2023-11-21T07:46:55;15;;;15;;
55021;SDS011;68328;35.990;-86.756;2023-11-21T07:49:21;18;;;15;;
55021;SDS011;68328;35.990;-86.756;2023-11-21T07:51:46;11;;;11;;
55021;SDS011;68328;35.990;-86.756;2023-11-21T07:54:12;18;;;18;;
55021;SDS011;68328;35.990;-86.756;2023-11-21T07:56:38;12;;;12;;
55021;SDS011;68328;35.990;-86.756;2023-11-21T07:59:03;12;;;10;;
55021;SDS011;68328;35.990;-86.756;2023-11-21T08:01:29;13;;;13;;
55021;SDS011;68328;35.990;-86.756;2023-11-21T08:03:54;10;;;9;;
55021;SDS011;68328;35.990;-86.756;2023-11-21T08:06:19;10;;;10;;
55021;SDS011;68328;35.990;-86.756;2023-11-21T08:08:45;10;;;10;;
55021;SDS011;68328;35.990;-86.756;2023-11-21T08:11:10;14;;;14;;
55021;SDS011;68328;35.990;-86.756;2023-11-21T08:13:36;11;;;11;;
55021;SDS011;68328;35.990;-86.756;2023-11-21T08:16:01;14;;;13;;
55021;SDS011;68328;35.990;-86.756;2023-11-21T08:18:26;12;;;12;;
55021;SDS011;68328;35.990;-86.756;2023-11-21T08:20:51;16;;;16;;
55021;SDS011;68328;35.990;-86.756;2023-11-21T08:23:17;11;;;11;;
55021;SDS011;68328;35.990;-86.756;2023-11-21T08:25:43;12;;;11;;
55021;SDS011;68328;35.990;-86.756;2023-11-21T08:28:08;12;;;12;;
55021;SDS011;68328;35.990;-86.756;2023-11-21T08:30:33;19;;;19;;
55021;SDS011;68328;35.990;-86.756;2023-11-21T08:32:58;11;;;10;;
55021;SDS011;68328;35.990;-86.756;2023-11-21T08:35:23;10;;;10;;
55021;SDS011;68328;35.990;-86.756;2023-11-21T08:37:51;9;;;9;;
55021;SDS011;68328;35.990;-86.756;2023-11-21T08:40:14;15;;;15;;
55021;SDS011;68328;35.990;-86.756;2023-11-21T08:42:39;8;;;8;;
55021;SDS011;68328;35.990;-86.756;2023-11-21T08:45:06;9;;;9;;
55021;SDS011;68328;35.990;-86.756;2023-11-21T08:47:30;8;;;8;;
55021;SDS011;68328;35.990;-86.756;2023-11-21T08:49:56;9;;;9;;
55021;SDS011;68328;35.990;-86.756;2023-11-21T08:52:21;11;;;11;;
55021;SDS011;68328;35.990;-86.756;2023-11-21T08:54:47;12;;;12;;
55021;SDS011;68328;35.990;-86.756;2023-11-21T08:57:13;11;;;11;;
55021;SDS011;68328;35.990;-86.756;2023-11-21T08:59:38;8;;;8;;
55021;SDS011;68328;35.990;-86.756;2023-11-21T09:02:04;7;;;7;;
55021;SDS011;68328;35.990;-86.756;2023-11-21T09:04:28;6;;;6;;
55021;SDS011;68328;35.990;-86.756;2023-11-21T09:06:54;9;;;7;;
55021;SDS011;68328;35.990;-86.756;2023-11-21T09:09:19;10;;;8;;
55021;SDS011;68328;35.990;-86.756;2023-11-21T09:11:44;7;;;6;;
55021;SDS011;68328;35.990;-86.756;2023-11-21T09:14:10;7;;;6;;
55021;SDS011;68328;35.990;-86.756;2023-11-21T09:16:35;7;;;7;;
55021;SDS011;68328;35.990;-86.756;2023-11-21T09:19:00;10;;;8;;
55021;SDS011;68328;35.990;-86.756;2023-11-21T09:21:25;10;;;9;;
55021;SDS011;68328;35.990;-86.756;2023-11-21T09:23:50;11;;;9;;
55021;SDS011;68328;35.990;-86.756;2023-11-21T09:26:16;11;;;8;;
55021;SDS011;68328;35.990;-86.756;2023-11-21T09:28:41;8;;;8;;
55021;SDS011;68328;35.990;-86.756;2023-11-21T09:31:07;8;;;8;;
55021;SDS011;68328;35.990;-86.756;2023-11-21T09:33:32;7;;;7;;
55021;SDS011;68328;35.990;-86.756;2023-11-21T09:35:58;7;;;7;;
55021;SDS011;68328;35.990;-86.756;2023-11-21T09:38:23;11;;;10;;
55021;SDS011;68328;35.990;-86.756;2023-11-21T09:40:48;5;;;5;;
55021;SDS011;68328;35.990;-86.756;2023-11-21T09:43:15;8;;;8;;
55021;SDS011;68328;35.990;-86.756;2023-11-21T09:45:39;11;;;11;;
55021;SDS011;68328;35.990;-86.756;2023-11-21T09:48:05;9;;;7;;
55021;SDS011;68328;35.990;-86.756;2023-11-21T09:50:31;8;;;8;;
55021;SDS011;68328;35.990;-86.756;2023-11-21T09:52:58;9;;;7;;
55021;SDS011;68328;35.990;-86.756;2023-11-21T09:55:21;8;;;7;;
55021;SDS011;68328;35.990;-86.756;2023-11-21T09:57:46;8;;;7;;
55021;SDS011;68328;35.990;-86.756;2023-11-21T10:00:12;8;;;8;;
55021;SDS011;68328;35.990;-86.756;2023-11-21T10:02:37;10;;;10;;
55021;SDS011;68328;35.990;-86.756;2023-11-21T10:05:02;8;;;8;;
55021;SDS011;68328;35.990;-86.756;2023-11-21T10:07:27;9;;;8;;
55021;SDS011;68328;35.990;-86.756;2023-11-21T10:09:53;8;;;8;;
55021;SDS011;68328;35.990;-86.756;2023-11-21T10:12:18;14;;;14;;
55021;SDS011;68328;35.990;-86.756;2023-11-21T10:14:46;9;;;9;;
55021;SDS011;68328;35.990;-86.756;2023-11-21T10:17:10;9;;;8;;
55021;SDS011;68328;35.990;-86.756;2023-11-21T10:19:35;8;;;7;;
55021;SDS011;68328;35.990;-86.756;2023-11-21T10:22:00;10;;;10;;
55021;SDS011;68328;35.990;-86.756;2023-11-21T10:24:25;7;;;6;;
55021;SDS011;68328;35.990;-86.756;2023-11-21T10:26:50;8;;;8;;
55021;SDS011;68328;35.990;-86.756;2023-11-21T10:29:16;11;;;10;;
55021;SDS011;68328;35.990;-86.756;2023-11-21T10:31:41;8;;;8;;
55021;SDS011;68328;35.990;-86.756;2023-11-21T10:34:12;8;;;7;;
55021;SDS011;68328;35.990;-86.756;2023-11-21T10:36:33;7;;;7;;
55021;SDS011;68328;35.990;-86.756;2023-11-21T10:38:57;6;;;6;;
55021;SDS011;68328;35.990;-86.756;2023-11-21T10:41:22;7;;;7;;
55021;SDS011;68328;35.990;-86.756;2023-11-21T10:43:47;7;;;7;;
55021;SDS011;68328;35.990;-86.756;2023-11-21T10:46:13;5;;;5;;
55021;SDS011;68328;35.990;-86.756;2023-11-21T10:48:38;9;;;9;;
55021;SDS011;68328;35.990;-86.756;2023-11-21T10:51:06;8;;;6;;
55021;SDS011;68328;35.990;-86.756;2023-11-21T10:53:29;6;;;6;;
55021;SDS011;68328;35.990;-86.756;2023-11-21T10:58:20;3;;;3;;
55021;SDS011;68328;35.990;-86.756;2023-11-21T11:00:44;6;;;6;;
55021;SDS011;68328;35.990;-86.756;2023-11-21T11:03:09;6;;;6;;
55021;SDS011;68328;35.990;-86.756;2023-11-21T11:05:35;7;;;7;;
55021;SDS011;68328;35.990;-86.756;2023-11-21T11:08:02;6;;;5;;
55021;SDS011;68328;35.990;-86.756;2023-11-21T11:10:25;6;;;5;;
55021;SDS011;68328;35.990;-86.756;2023-11-21T11:12:50;3;;;3;;
55021;SDS011;68328;35.990;-86.756;2023-11-21T11:15:16;4;;;4;;
55021;SDS011;68328;35.990;-86.756;2023-11-21T11:17:41;7;;;5;;
55021;SDS011;68328;35.990;-86.756;2023-11-21T11:20:06;3;;;3;;
55021;SDS011;68328;35.990;-86.756;2023-11-21T11:22:36;6;;;5;;
55021;SDS011;68328;35.990;-86.756;2023-11-21T11:25:03;3;;;3;;
55021;SDS011;68328;35.990;-86.756;2023-11-21T11:27:25;3;;;3;;
55021;SDS011;68328;35.990;-86.756;2023-11-21T11:29:49;4;;;4;;
55021;SDS011;68328;35.990;-86.756;2023-11-21T11:32:16;5;;;5;;
55021;SDS011;68328;35.990;-86.756;2023-11-21T11:34:40;4;;;4;;
55021;SDS011;68328;35.990;-86.756;2023-11-21T11:37:05;3;;;3;;
55021;SDS011;68328;35.990;-86.756;2023-11-21T11:39:28;3;;;3;;
55021;SDS011;68328;35.990;-86.756;2023-11-21T11:41:53;2;;;2;;
55021;SDS011;68328;35.990;-86.756;2023-11-21T11:46:44;3;;;3;;
55021;SDS011;68328;35.990;-86.756;2023-11-21T11:49:09;5;;;5;;
55021;SDS011;68328;35.990;-86.756;2023-11-21T11:51:34;2;;;2;;
55021;SDS011;68328;35.990;-86.756;2023-11-21T11:53:59;3;;;2;;
55021;SDS011;68328;35.990;-86.756;2023-11-21T11:56:26;3;;;3;;
55021;SDS011;68328;35.990;-86.756;2023-11-21T11:58:50;4;;;2;;
55021;SDS011;68328;35.990;-86.756;2023-11-21T12:01:16;3;;;3;;
55021;SDS011;68328;35.990;-86.756;2023-11-21T12:03:40;3;;;3;;
55021;SDS011;68328;35.990;-86.756;2023-11-21T12:06:06;4;;;3;;
55021;SDS011;68328;35.990;-86.756;2023-11-21T12:08:32;3;;;3;;
55021;SDS011;68328;35.990;-86.756;2023-11-21T12:10:56;3;;;3;;
55021;SDS011;68328;35.990;-86.756;2023-11-21T12:13:21;3;;;3;;
55021;SDS011;68328;35.990;-86.756;2023-11-21T12:15:47;3;;;2;;
55021;SDS011;68328;35.990;-86.756;2023-11-21T12:18:12;3;;;3;;
55021;SDS011;68328;35.990;-86.756;2023-11-21T12:20:37;4;;;4;;
55021;SDS011;68328;35.990;-86.756;2023-11-21T12:23:02;3;;;3;;
55021;SDS011;68328;35.990;-86.756;2023-11-21T12:25:28;3;;;3;;
55021;SDS011;68328;35.990;-86.756;2023-11-21T12:27:53;3;;;3;;
55021;SDS011;68328;35.990;-86.756;2023-11-21T12:30:18;3;;;3;;
55021;SDS011;68328;35.990;-86.756;2023-11-21T12:32:44;2;;;2;;
55021;SDS011;68328;35.990;-86.756;2023-11-21T12:35:09;3;;;3;;
55021;SDS011;68328;35.990;-86.756;2023-11-21T12:37:34;3;;;3;;
55021;SDS011;68328;35.990;-86.756;2023-11-21T12:39:59;4;;;4;;
55021;SDS011;68328;35.990;-86.756;2023-11-21T12:42:24;3;;;2;;
55021;SDS011;68328;35.990;-86.756;2023-11-21T12:47:17;4;;;4;;
55021;SDS011;68328;35.990;-86.756;2023-11-21T12:49:41;2;;;2;;
55021;SDS011;68328;35.990;-86.756;2023-11-21T12:52:06;3;;;2;;
55021;SDS011;68328;35.990;-86.756;2023-11-21T12:54:31;2;;;2;;
55021;SDS011;68328;35.990;-86.756;2023-11-21T12:56:59;4;;;3;;
55021;SDS011;68328;35.990;-86.756;2023-11-21T12:59:22;4;;;4;;
55021;SDS011;68328;35.990;-86.756;2023-11-21T13:01:47;2;;;2;;
55021;SDS011;68328;35.990;-86.756;2023-11-21T13:04:13;2;;;2;;
55021;SDS011;68328;35.990;-86.756;2023-11-21T13:06:37;2;;;2;;
55021;SDS011;68328;35.990;-86.756;2023-11-21T13:09:04;2;;;2;;
55021;SDS011;68328;35.990;-86.756;2023-11-21T13:11:28;3;;;2;;
55021;SDS011;68328;35.990;-86.756;2023-11-21T13:13:54;2;;;2;;
55021;SDS011;68328;35.990;-86.756;2023-11-21T13:16:18;2;;;2;;
55021;SDS011;68328;35.990;-86.756;2023-11-21T13:18:44;2;;;2;;
55021;SDS011;68328;35.990;-86.756;2023-11-21T13:21:10;1;;;1;;
55021;SDS011;68328;35.990;-86.756;2023-11-21T13:23:35;2;;;1;;
55021;SDS011;68328;35.990;-86.756;2023-11-21T13:25:59;1;;;1;;
55021;SDS011;68328;35.990;-86.756;2023-11-21T13:28:24;2;;;2;;
55021;SDS011;68328;35.990;-86.756;2023-11-21T13:30:50;4;;;4;;
55021;SDS011;68328;35.990;-86.756;2023-11-21T13:33:15;2;;;2;;
55021;SDS011;68328;35.990;-86.756;2023-11-21T13:35:41;1;;;1;;
55021;SDS011;68328;35.990;-86.756;2023-11-21T13:38:06;1;;;1;;
55021;SDS011;68328;35.990;-86.756;2023-11-21T13:40:33;1;;;1;;
55021;SDS011;68328;35.990;-86.756;2023-11-21T13:42:56;2;;;2;;
55021;SDS011;68328;35.990;-86.756;2023-11-21T13:45:22;1;;;1;;
55021;SDS011;68328;35.990;-86.756;2023-11-21T13:47:46;1;;;1;;
55021;SDS011;68328;35.990;-86.756;2023-11-21T13:50:12;0;;;0;;
55021;SDS011;68328;35.990;-86.756;2023-11-21T13:52:37;1;;;1;;
55021;SDS011;68328;35.990;-86.756;2023-11-21T13:55:05;1;;;1;;
55021;SDS011;68328;35.990;-86.756;2023-11-21T13:57:27;2;;;2;;
55021;SDS011;68328;35.990;-86.756;2023-11-21T13:59:53;2;;;2;;
55021;SDS011;68328;35.990;-86.756;2023-11-21T14:02:20;2;;;2;;
55021;SDS011;68328;35.990;-86.756;2023-11-21T14:04:43;0;;;0;;
55021;SDS011;68328;35.990;-86.756;2023-11-21T14:07:08;1;;;1;;
55021;SDS011;68328;35.990;-86.756;2023-11-21T14:09:35;0;;;0;;
55021;SDS011;68328;35.990;-86.756;2023-11-21T14:11:59;1;;;1;;
55021;SDS011;68328;35.990;-86.756;2023-11-21T14:14:25;1;;;1;;
55021;SDS011;68328;35.990;-86.756;2023-11-21T14:16:49;1;;;1;;
55021;SDS011;68328;35.990;-86.756;2023-11-21T14:19:14;1;;;1;;
55021;SDS011;68328;35.990;-86.756;2023-11-21T14:21:40;1;;;0;;
55021;SDS011;68328;35.990;-86.756;2023-11-21T14:24:06;0;;;0;;
55021;SDS011;68328;35.990;-86.756;2023-11-21T14:26:35;0;;;0;;
55021;SDS011;68328;35.990;-86.756;2023-11-21T14:31:23;0;;;0;;
55021;SDS011;68328;35.990;-86.756;2023-11-21T14:38:38;0;;;0;;
55021;SDS011;68328;35.990;-86.756;2023-11-21T14:41:02;0;;;0;;
55021;SDS011;68328;35.990;-86.756;2023-11-21T14:43:32;0;;;0;;
55021;SDS011;68328;35.990;-86.756;2023-11-21T14:48:21;0;;;0;;
55021;SDS011;68328;35.990;-86.756;2023-11-21T14:50:44;0;;;0;;
55021;SDS011;68328;35.990;-86.756;2023-11-21T14:53:12;1;;;1;;
55021;SDS011;68328;35.990;-86.756;2023-11-21T15:00:23;0;;;0;;
55021;SDS011;68328;35.990;-86.756;2023-11-21T15:02:50;0;;;0;;
55021;SDS011;68328;35.990;-86.756;2023-11-21T15:07:42;0;;;0;;
55021;SDS011;68328;35.990;-86.756;2023-11-21T15:10:07;1;;;1;;
55021;SDS011;68328;35.990;-86.756;2023-11-21T15:12:29;0;;;0;;
55021;SDS011;68328;35.990;-86.756;2023-11-21T15:14:54;1;;;1;;
55021;SDS011;68328;35.990;-86.756;2023-11-21T15:17:21;0;;;0;;
55021;SDS011;68328;35.990;-86.756;2023-11-21T15:19:45;1;;;1;;
55021;SDS011;68328;35.990;-86.756;2023-11-21T15:22:11;2;;;2;;
55021;SDS011;68328;35.990;-86.756;2023-11-21T15:24:37;1;;;1;;
55021;SDS011;68328;35.990;-86.756;2023-11-21T15:27:03;0;;;0;;
55021;SDS011;68328;35.990;-86.756;2023-11-21T15:29:26;2;;;2;;
55021;SDS011;68328;35.990;-86.756;2023-11-21T15:34:19;2;;;2;;
55021;SDS011;68328;35.990;-86.756;2023-11-21T15:36:45;2;;;2;;
55021;SDS011;68328;35.990;-86.756;2023-11-21T15:39:10;2;;;2;;
55021;SDS011;68328;35.990;-86.756;2023-11-21T15:43:57;1;;;1;;
55021;SDS011;68328;35.990;-86.756;2023-11-21T15:46:22;4;;;4;;